createdAt,value
2024-02-24T00:01:19.669Z,23.6
2024-02-24T00:06:45.488Z,24.9
2024-02-24T00:12:24.066Z,26.8
2024-02-24T00:18:03.282Z,23.7
2024-02-24T00:23:43.140Z,23.6
2024-02-24T00:29:22.139Z,26
2024-02-24T00:35:01.473Z,23.9
2024-02-24T00:40:25.034Z,23.8
2024-02-24T00:46:03.710Z,25.1
2024-02-24T00:51:43.024Z,25.2
2024-02-24T00:57:06.665Z,23.8
2024-02-24T01:02:45.393Z,23.7
2024-02-24T01:08:24.634Z,26.3
2024-02-24T01:13:48.119Z,23.9
2024-02-24T01:19:27.731Z,23.8
2024-02-24T01:25:06.820Z,25
2024-02-24T01:30:45.283Z,26
2024-02-24T01:36:24.602Z,23.8
2024-02-24T01:42:03.282Z,23.8
2024-02-24T01:47:41.398Z,25.8
2024-02-24T01:53:20.468Z,24.1
2024-02-24T01:58:59.438Z,23.8
2024-02-24T02:04:22.994Z,25
2024-02-24T02:09:46.463Z,26.8
2024-02-24T02:15:27.015Z,23.8
2024-02-24T02:20:35.100Z,23.8
2024-02-24T02:25:43.118Z,25.2
2024-02-24T02:31:21.752Z,25.5
2024-02-24T02:37:03.045Z,23.8
2024-02-24T02:42:41.420Z,23.7
2024-02-24T02:48:28.769Z,25.8
2024-02-24T02:54:08.096Z,24.1
2024-02-24T02:59:47.295Z,23.8
2024-02-24T03:05:11.003Z,24.3
2024-02-24T03:10:22.304Z,26.3
2024-02-24T03:15:30.620Z,24
2024-02-24T03:21:10.051Z,23.8
2024-02-24T03:26:48.413Z,24.1
2024-02-24T03:32:27.097Z,26.3
2024-02-24T03:38:06.533Z,23.9
2024-02-24T03:43:45.112Z,23.8
2024-02-24T03:48:53.729Z,24.9
2024-02-24T03:54:32.701Z,26.8
2024-02-24T04:00:11.720Z,23.9
2024-02-24T04:05:50.358Z,23.8
2024-02-24T04:11:30.071Z,25.1
2024-02-24T04:17:09.204Z,25.6
2024-02-24T04:22:48.713Z,23.8
2024-02-24T04:28:27.239Z,23.8
2024-02-24T04:34:06.369Z,25.5
2024-02-24T04:39:45.735Z,24.4
2024-02-24T04:45:09.109Z,23.8
2024-02-24T04:50:33.187Z,23.7
2024-02-24T04:55:56.128Z,25.8
2024-02-24T05:01:19.637Z,24.3
2024-02-24T05:06:43.077Z,23.8
2024-02-24T05:12:07.185Z,23.8
2024-02-24T05:17:30.295Z,25.8
2024-02-24T05:22:39.142Z,24.4
2024-02-24T05:28:04.803Z,23.9
2024-02-24T05:33:32.597Z,23.8
2024-02-24T05:38:56.249Z,25.5
2024-02-24T05:44:21.000Z,23.8
2024-02-24T05:49:44.855Z,23.6
2024-02-24T05:55:26.046Z,23.4
2024-02-24T06:01:04.604Z,23
2024-02-24T06:06:44.715Z,22.6
2024-02-24T06:12:23.590Z,22.2
2024-02-24T06:18:01.945Z,21.8
2024-02-24T06:23:44.203Z,21.4
2024-02-24T06:29:06.811Z,21.1
2024-02-24T06:34:46.077Z,20.8
2024-02-24T06:40:29.509Z,20.4
2024-02-24T06:46:15.040Z,20.1
2024-02-24T06:51:55.314Z,23.8
2024-02-24T06:57:36.683Z,23.3
2024-02-24T07:03:15.405Z,23.1
2024-02-24T07:08:54.677Z,22.8
2024-02-24T07:14:34.575Z,22.5
2024-02-24T07:20:13.852Z,22.1
2024-02-24T07:25:53.838Z,21.8
2024-02-24T07:31:35.546Z,21.4
2024-02-24T07:42:27.009Z,20.8
2024-02-24T07:47:49.707Z,20.5
2024-02-24T07:53:29.290Z,20.2
2024-02-24T07:59:07.631Z,22.4
2024-02-24T08:04:47.928Z,25.1
2024-02-24T08:10:27.448Z,22.8
2024-02-24T08:15:52.375Z,22.6
2024-02-24T08:21:16.549Z,22.4
2024-02-24T08:26:54.982Z,22.1
2024-02-24T08:32:33.354Z,21.8
2024-02-24T08:38:13.720Z,21.4
2024-02-24T08:49:00.197Z,20.9
2024-02-24T08:54:53.018Z,20.5
2024-02-24T09:00:31.612Z,20.3
2024-02-24T09:06:12.846Z,22.7
2024-02-24T09:11:52.789Z,24.1
2024-02-24T09:17:31.593Z,22.8
2024-02-24T09:22:55.588Z,22.6
2024-02-24T09:28:34.503Z,22.4
2024-02-24T09:34:13.880Z,22.1
2024-02-24T09:39:53.119Z,21.8
2024-02-24T09:45:16.208Z,21.4
2024-02-24T09:50:55.753Z,21.2
2024-02-24T09:56:36.350Z,20.9
2024-02-24T10:01:59.659Z,20.6
2024-02-24T10:07:39.152Z,20.3
2024-02-24T10:13:07.099Z,23.4
2024-02-24T10:18:15.024Z,22.9
2024-02-24T10:23:38.917Z,22.5
2024-02-24T10:29:19.788Z,22.4
2024-02-24T10:35:03.520Z,22.1
2024-02-24T10:41:28.048Z,21.9
2024-02-24T10:47:06.193Z,21.6
2024-02-24T10:52:46.794Z,21.3
2024-02-24T10:58:10.750Z,21
2024-02-24T11:03:49.517Z,20.8
2024-02-24T11:09:15.005Z,20.4
2024-02-24T11:15:04.373Z,20.2
2024-02-24T11:20:47.917Z,22.5
2024-02-24T11:26:10.783Z,24.7
2024-02-24T11:31:49.809Z,22.5
2024-02-24T11:37:29.906Z,22.4
2024-02-24T11:43:09.286Z,22.2
2024-02-24T11:48:48.884Z,21.9
2024-02-24T11:54:31.331Z,21.7
2024-02-24T12:00:09.953Z,21.4
2024-02-24T12:11:00.856Z,20.8
2024-02-24T12:16:39.250Z,20.6
2024-02-24T12:22:20.326Z,20.3
2024-02-24T12:27:58.583Z,20.6
2024-02-24T12:33:37.972Z,23.8
2024-02-24T12:39:17.333Z,22.6
2024-02-24T12:44:56.303Z,22.4
2024-02-24T12:50:44.965Z,22.3
2024-02-24T12:56:23.796Z,22.1
2024-02-24T13:02:05.065Z,21.8
2024-02-24T13:07:44.621Z,21.6
2024-02-24T13:13:24.618Z,21.3
2024-02-24T13:19:03.926Z,21
2024-02-24T13:24:27.001Z,20.7
2024-02-24T13:29:53.372Z,20.4
2024-02-24T13:35:33.203Z,20.2
2024-02-24T13:41:11.299Z,22.1
2024-02-24T13:46:50.075Z,24.9
2024-02-24T13:52:30.381Z,22.3
2024-02-24T13:58:09.105Z,22.2
2024-02-24T14:03:48.754Z,22.1
2024-02-24T14:09:29.538Z,21.9
2024-02-24T14:15:11.543Z,21.6
2024-02-24T14:21:03.811Z,21.4
2024-02-24T14:26:45.363Z,21.1
2024-02-24T14:32:37.223Z,20.8
2024-02-24T14:38:19.927Z,20.5
2024-02-24T14:43:58.930Z,20.2
2024-02-24T14:49:38.605Z,19.9
2024-02-24T14:55:19.062Z,23.4
2024-02-24T15:00:27.001Z,22.7
2024-02-24T15:06:17.114Z,22.3
2024-02-24T15:11:56.691Z,22.2
2024-02-24T15:17:42.755Z,22
2024-02-24T15:23:08.300Z,21.8
2024-02-24T15:28:51.711Z,21.6
2024-02-24T15:34:31.454Z,21.3
2024-02-24T15:40:09.978Z,21
2024-02-24T15:45:48.136Z,20.7
2024-02-24T15:51:28.792Z,20.4
2024-02-24T15:57:07.675Z,20.2
2024-02-24T16:02:46.585Z,21.6
2024-02-24T16:08:31.362Z,24.4
2024-02-24T16:14:09.772Z,22.3
2024-02-24T16:19:52.085Z,22.2
2024-02-24T16:25:30.729Z,22.1
2024-02-24T16:30:53.808Z,21.9
2024-02-24T16:36:37.683Z,21.7
2024-02-24T16:42:16.480Z,21.4
2024-02-24T16:47:55.261Z,21.2
2024-02-24T16:53:36.024Z,20.9
2024-02-24T16:58:59.816Z,20.6
2024-02-24T17:04:38.952Z,20.3
2024-02-24T17:10:02.957Z,20.1
2024-02-24T17:15:12.213Z,21.4
2024-02-24T17:20:59.030Z,23.9
2024-02-24T17:26:38.410Z,22.2
2024-02-24T17:32:17.310Z,22.1
2024-02-24T17:37:41.971Z,22
2024-02-24T17:43:20.640Z,21.9
2024-02-24T17:48:59.915Z,21.6
2024-02-24T17:54:38.597Z,21.4
2024-02-24T18:00:13.680Z,21.2
2024-02-24T18:05:53.258Z,20.9
2024-02-24T18:11:16.624Z,20.6
2024-02-24T18:16:42.219Z,20.4
2024-02-24T18:22:07.005Z,20.1
2024-02-24T18:27:17.589Z,21.3
2024-02-24T18:32:56.596Z,23.6
2024-02-24T18:38:36.484Z,22.2
2024-02-24T18:44:03.346Z,22
2024-02-24T18:49:43.489Z,22.1
2024-02-24T18:55:22.451Z,21.9
2024-02-24T19:01:00.992Z,21.8
2024-02-24T19:06:24.787Z,21.6
2024-02-24T19:11:48.369Z,21.3
2024-02-24T19:22:56.224Z,20.9
2024-02-24T19:28:37.148Z,20.6
2024-02-24T19:34:16.691Z,20.3
2024-02-24T19:40:07.978Z,20.1
2024-02-24T19:45:53.483Z,20.5
2024-02-24T19:51:33.123Z,23.4
2024-02-24T19:56:56.276Z,22.3
2024-02-24T20:02:58.659Z,22
2024-02-24T20:08:39.089Z,22
2024-02-24T20:14:18.128Z,21.9
2024-02-24T20:19:42.589Z,21.8
2024-02-24T20:25:20.637Z,21.6
2024-02-24T20:31:00.393Z,21.4
2024-02-24T20:42:13.022Z,20.9
2024-02-24T20:47:51.207Z,20.6
2024-02-24T20:53:15.078Z,20.4
2024-02-24T20:58:53.960Z,21.4
2024-02-24T21:04:34.596Z,24.1
2024-02-24T21:10:15.833Z,26.4
2024-02-24T21:15:55.038Z,23.4
2024-02-24T21:21:38.403Z,26.4
2024-02-24T21:27:17.608Z,22.8
2024-02-24T21:32:59.899Z,23.8
2024-02-24T21:38:40.205Z,26.1
2024-02-24T21:44:18.188Z,23
2024-02-24T21:49:58.441Z,22.9
2024-02-24T21:55:37.405Z,24.9
2024-02-24T22:01:16.724Z,25.4
2024-02-24T22:06:56.499Z,22.9
2024-02-24T22:12:35.998Z,23
2024-02-24T22:18:18.029Z,25.1
2024-02-24T22:23:57.360Z,24.3
2024-02-24T22:29:39.085Z,23.1
2024-02-24T22:35:32.766Z,23.1
2024-02-24T22:40:57.587Z,24.6
2024-02-24T22:46:36.522Z,26.8
2024-02-24T22:52:16.835Z,23.2
2024-02-24T22:57:44.117Z,23.3
2024-02-24T23:03:07.539Z,23.2
2024-02-24T23:08:31.264Z,25.4
2024-02-24T23:14:05.538Z,24.2
2024-02-24T23:19:29.764Z,23.3
2024-02-24T23:25:08.732Z,23.3
2024-02-24T23:30:47.398Z,23.5
2024-02-24T23:36:29.000Z,25.6
2024-02-24T23:42:12.348Z,23.8
2024-02-24T23:47:50.979Z,23.4
2024-02-24T23:53:30.469Z,23.4
2024-02-24T23:59:08.879Z,23.6
